createdAt,value
2019-05-23T00:05:21.401Z,99.90
2019-05-23T00:11:33.146Z,99.90
2019-05-23T00:14:07.440Z,99.90
2019-05-23T00:16:55.487Z,99.90
2019-05-23T00:19:24.971Z,99.90
2019-05-23T00:22:13.164Z,99.90
2019-05-23T00:24:56.002Z,99.90
2019-05-23T00:27:37.815Z,99.90
2019-05-23T00:36:12.658Z,99.90
2019-05-23T00:59:27.229Z,99.90
2019-05-23T01:05:20.598Z,99.90
2019-05-23T01:08:08.684Z,99.90
2019-05-23T01:13:56.057Z,99.90
2019-05-23T01:22:48.123Z,99.90
2019-05-23T01:25:29.670Z,99.90
2019-05-23T01:28:10.335Z,99.90
2019-05-23T01:30:53.486Z,99.90
2019-05-23T01:33:34.296Z,99.90
2019-05-23T01:42:12.221Z,99.90
2019-05-23T01:44:53.748Z,99.90
2019-05-23T01:47:35.269Z,99.90
2019-05-23T01:50:16.866Z,99.90
2019-05-23T01:52:58.999Z,99.90
2019-05-23T01:55:39.680Z,99.90
2019-05-23T01:58:20.628Z,99.90
2019-05-23T02:01:02.499Z,99.90
2019-05-23T02:03:44.446Z,99.90
2019-05-23T02:06:25.524Z,99.90
2019-05-23T02:09:07.668Z,99.90
2019-05-23T02:11:48.900Z,99.90
2019-05-23T02:14:29.923Z,99.90
2019-05-23T02:17:11.229Z,99.90
2019-05-23T02:19:51.696Z,99.90
2019-05-23T02:22:32.080Z,99.90
2019-05-23T02:25:14.216Z,99.90
2019-05-23T02:27:55.645Z,99.90
2019-05-23T02:31:04.238Z,99.90
2019-05-23T02:33:52.930Z,99.90
2019-05-23T02:37:01.603Z,99.90
2019-05-23T02:40:08.716Z,99.90
2019-05-23T02:57:41.310Z,99.90
2019-05-23T03:04:18.952Z,99.90
2019-05-23T03:10:01.835Z,99.90
2019-05-23T03:13:10.421Z,99.90
2019-05-23T03:15:58.519Z,99.90
2019-05-23T03:19:07.547Z,99.90
2019-05-23T03:27:48.698Z,99.90
2019-05-23T03:33:45.717Z,99.90
2019-05-23T03:36:34.266Z,99.90
2019-05-23T03:41:39.282Z,99.90
2019-05-23T03:50:22.819Z,99.90
2019-05-23T03:53:11.959Z,99.90
2019-05-23T03:59:29.387Z,99.90
2019-05-23T04:05:09.560Z,99.90
2019-05-23T04:10:52.702Z,99.90
2019-05-23T04:13:42.345Z,99.90
2019-05-23T04:19:19.984Z,99.90
2019-05-23T04:21:49.246Z,99.90
2019-05-23T04:24:18.284Z,99.90
2019-05-23T04:26:47.313Z,99.90
2019-05-23T04:29:16.204Z,99.90
2019-05-23T04:31:45.042Z,99.90
2019-05-23T04:34:13.977Z,99.90
2019-05-23T04:36:42.763Z,99.90
2019-05-23T04:39:11.631Z,99.90
2019-05-23T04:41:40.527Z,99.90
2019-05-23T04:44:28.613Z,99.90
2019-05-23T04:46:57.764Z,99.90
2019-05-23T04:49:45.813Z,99.90
2019-05-23T04:52:15.076Z,99.90
2019-05-23T04:55:23.767Z,99.90
2019-05-23T04:57:52.637Z,99.90
2019-05-23T05:00:22.181Z,99.90
2019-05-23T05:02:51.707Z,99.90
2019-05-23T05:05:20.782Z,99.90
2019-05-23T05:07:49.710Z,99.90
2019-05-23T05:10:39.203Z,99.90
2019-05-23T05:13:27.259Z,99.90
2019-05-23T05:18:54.941Z,99.90
2019-05-23T05:21:41.074Z,99.90
2019-05-23T05:24:29.635Z,99.90
2019-05-23T05:27:11.459Z,99.90
2019-05-23T05:29:52.508Z,99.90
2019-05-23T05:32:44.230Z,99.90
2019-05-23T05:35:16.505Z,99.90
2019-05-23T05:37:57.686Z,99.90
2019-05-23T05:40:38.156Z,99.90
2019-05-23T05:43:18.849Z,99.90
2019-05-23T05:45:59.640Z,99.90
2019-05-23T05:48:40.519Z,99.90
2019-05-23T05:51:21.571Z,99.90
2019-05-23T05:54:02.945Z,99.90
2019-05-23T05:56:43.511Z,99.90
2019-05-23T05:59:24.108Z,99.90
2019-05-23T06:02:06.839Z,99.90
2019-05-23T06:04:47.223Z,99.90
2019-05-23T06:07:31.784Z,99.90
2019-05-23T06:10:14.140Z,99.90
2019-05-23T06:12:55.715Z,99.90
2019-05-23T06:15:36.197Z,99.90
2019-05-23T06:18:16.931Z,99.90
2019-05-23T06:20:57.641Z,99.90
2019-05-23T06:23:38.478Z,99.90
2019-05-23T06:26:19.728Z,99.90
2019-05-23T06:29:00.613Z,99.90
2019-05-23T06:31:41.358Z,99.90
2019-05-23T06:34:22.740Z,99.90
2019-05-23T06:37:04.186Z,99.90
2019-05-23T06:39:44.715Z,99.90
2019-05-23T06:42:25.723Z,99.90
2019-05-23T06:45:07.288Z,99.90
2019-05-23T06:47:48.436Z,99.90
2019-05-23T06:50:29.637Z,99.90
2019-05-23T06:53:10.293Z,99.90
2019-05-23T06:55:50.969Z,99.90
2019-05-23T06:58:31.831Z,99.90
2019-05-23T07:01:12.550Z,99.90
2019-05-23T07:03:53.333Z,99.90
2019-05-23T07:06:34.058Z,99.90
2019-05-23T07:09:14.802Z,99.90
2019-05-23T07:11:55.448Z,99.90
2019-05-23T07:14:36.461Z,99.90
2019-05-23T07:17:17.709Z,99.90
2019-05-23T07:20:06.105Z,99.90
2019-05-23T07:22:54.169Z,99.90
2019-05-23T07:25:34.921Z,99.90
2019-05-23T07:28:15.592Z,99.90
2019-05-23T07:30:56.791Z,99.90
2019-05-23T07:33:37.636Z,99.90
2019-05-23T07:36:18.347Z,99.90
2019-05-23T07:38:59.431Z,99.90
2019-05-23T07:41:40.467Z,99.90
2019-05-23T07:44:21.296Z,99.90
2019-05-23T07:47:02.493Z,99.90
2019-05-23T07:49:43.629Z,99.90
2019-05-23T07:52:24.105Z,99.90
2019-05-23T07:55:09.540Z,99.90
2019-05-23T07:57:51.016Z,99.90
2019-05-23T08:00:34.636Z,99.90
2019-05-23T08:03:13.993Z,99.90
2019-05-23T08:09:11.287Z,99.90
2019-05-23T08:11:59.792Z,99.90
2019-05-23T08:14:47.872Z,99.90
2019-05-23T08:17:36.110Z,99.90
2019-05-23T08:20:24.199Z,99.90
2019-05-23T08:23:12.440Z,99.90
2019-05-23T08:25:53.828Z,99.90
2019-05-23T08:28:34.555Z,99.90
2019-05-23T08:31:15.658Z,99.90
2019-05-23T08:33:44.576Z,99.90
2019-05-23T08:36:32.804Z,99.90
2019-05-23T08:42:17.248Z,99.90
2019-05-23T08:48:01.175Z,99.90
2019-05-23T08:50:51.430Z,99.90
2019-05-23T08:53:39.096Z,99.90
2019-05-23T08:56:27.160Z,99.90
2019-05-23T08:59:15.266Z,99.90
2019-05-23T09:02:03.568Z,99.90
2019-05-23T09:05:04.355Z,99.90
2019-05-23T09:07:41.329Z,99.90
2019-05-23T09:16:20.554Z,99.90
2019-05-23T09:19:08.671Z,99.90
2019-05-23T09:21:58.046Z,99.90
2019-05-23T09:24:46.353Z,99.90
2019-05-23T09:27:26.782Z,99.90
2019-05-23T09:30:08.230Z,99.60
2019-05-23T09:32:49.348Z,99.90
2019-05-23T09:35:29.748Z,99.90
2019-05-23T09:38:10.831Z,99.90
2019-05-23T09:40:51.751Z,99.20
2019-05-23T09:43:32.743Z,98.10
2019-05-23T09:46:13.718Z,99.90
2019-05-23T09:48:54.910Z,98.10
2019-05-23T09:51:36.105Z,99.50
2019-05-23T09:54:17.574Z,99.90
2019-05-23T09:56:46.601Z,99.90
2019-05-23T09:59:34.669Z,99.80
2019-05-23T10:02:29.987Z,99.90
2019-05-23T10:05:18.305Z,99.90
2019-05-23T10:08:06.281Z,99.20
2019-05-23T10:10:54.486Z,99.90
2019-05-23T10:13:42.650Z,93.70
2019-05-23T10:16:31.325Z,98.90
2019-05-23T10:19:19.460Z,98.90
2019-05-23T10:22:07.673Z,91.30
2019-05-23T10:24:55.679Z,92.90
2019-05-23T10:27:36.495Z,91.50
2019-05-23T10:30:18.445Z,96.20
2019-05-23T10:32:47.199Z,90.40
2019-05-23T10:38:44.249Z,92.30
2019-05-23T10:41:32.415Z,92.00
2019-05-23T10:44:20.512Z,87.80
2019-05-23T10:47:08.720Z,88.10
2019-05-23T10:49:56.721Z,88.40
2019-05-23T10:52:44.754Z,91.00
2019-05-23T10:55:32.888Z,84.90
2019-05-23T10:58:01.906Z,87.60
2019-05-23T11:03:39.742Z,91.30
2019-05-23T11:09:17.739Z,88.60
2019-05-23T11:15:06.179Z,87.50
2019-05-23T11:17:54.421Z,90.80
2019-05-23T11:20:42.388Z,91.30
2019-05-23T11:26:01.452Z,88.30
2019-05-23T11:28:43.185Z,86.20
2019-05-23T11:31:23.836Z,91.40
2019-05-23T11:34:04.807Z,90.00
2019-05-23T11:36:45.441Z,87.60
2019-05-23T11:39:26.491Z,90.10
2019-05-23T11:42:07.093Z,88.20
2019-05-23T11:44:48.136Z,91.90
2019-05-23T11:47:32.017Z,91.90
2019-05-23T11:50:12.972Z,89.30
2019-05-23T11:52:56.144Z,84.80
2019-05-23T11:55:36.926Z,86.40
2019-05-23T11:58:17.809Z,93.30
2019-05-23T12:01:00.608Z,88.00
2019-05-23T12:03:41.787Z,83.80
2019-05-23T12:06:26.165Z,84.20
2019-05-23T12:09:06.860Z,82.40
2019-05-23T12:11:47.992Z,82.10
2019-05-23T12:14:28.509Z,78.60
2019-05-23T12:17:09.083Z,83.10
2019-05-23T12:19:50.317Z,87.10
2019-05-23T12:22:32.192Z,79.90
2019-05-23T12:25:21.890Z,82.20
2019-05-23T12:27:55.857Z,79.90
2019-05-23T12:30:36.889Z,81.10
2019-05-23T12:33:17.891Z,90.60
2019-05-23T12:35:58.895Z,74.50
2019-05-23T12:38:39.961Z,75.10
2019-05-23T12:41:21.106Z,73.00
2019-05-23T12:44:01.943Z,81.20
2019-05-23T12:46:42.688Z,84.20
2019-05-23T12:49:42.610Z,87.20
2019-05-23T12:52:22.433Z,81.60
2019-05-23T12:55:10.579Z,83.30
2019-05-23T12:57:58.569Z,85.50
2019-05-23T13:01:05.720Z,73.70
2019-05-23T13:09:57.795Z,74.90
2019-05-23T13:12:46.221Z,75.10
2019-05-23T13:18:29.827Z,75.30
2019-05-23T13:21:17.962Z,73.20
2019-05-23T13:24:06.086Z,73.60
2019-05-23T13:26:46.699Z,73.00
2019-05-23T13:29:27.480Z,71.20
2019-05-23T13:35:07.960Z,71.70
2019-05-23T13:37:55.968Z,77.10
2019-05-23T13:40:44.016Z,74.70
2019-05-23T13:43:32.009Z,75.90
2019-05-23T13:46:20.081Z,73.80
2019-05-23T13:49:08.258Z,72.30
2019-05-23T13:51:56.320Z,77.30
2019-05-23T13:54:44.310Z,78.90
2019-05-23T13:57:32.391Z,74.30
2019-05-23T14:06:24.569Z,83.70
2019-05-23T14:12:21.669Z,70.30
2019-05-23T14:18:20.482Z,71.90
2019-05-23T14:21:08.597Z,73.90
2019-05-23T14:29:37.759Z,74.70
2019-05-23T14:35:16.168Z,73.60
2019-05-23T14:37:59.068Z,68.20
2019-05-23T14:40:39.888Z,76.50
2019-05-23T14:43:24.724Z,71.60
2019-05-23T14:46:11.251Z,73.40
2019-05-23T14:52:02.700Z,70.70
2019-05-23T14:54:53.741Z,73.10
2019-05-23T14:57:22.467Z,75.20
2019-05-23T15:00:04.868Z,73.10
2019-05-23T15:02:34.917Z,72.20
2019-05-23T15:05:04.477Z,71.90
2019-05-23T15:07:35.274Z,75.90
2019-05-23T15:10:05.399Z,77.60
2019-05-23T15:12:34.143Z,76.80
2019-05-23T15:15:03.203Z,77.40
2019-05-23T15:17:32.111Z,73.80
2019-05-23T15:20:00.962Z,76.50
2019-05-23T15:22:29.771Z,72.50
2019-05-23T15:24:58.547Z,73.00
2019-05-23T15:27:27.550Z,73.60
2019-05-23T15:29:56.288Z,79.40
2019-05-23T15:32:25.208Z,76.40
2019-05-23T15:34:54.000Z,82.70
2019-05-23T15:37:23.520Z,78.20
2019-05-23T15:39:52.342Z,76.90
2019-05-23T15:42:21.148Z,75.80
2019-05-23T15:44:50.061Z,75.50
2019-05-23T15:47:20.683Z,78.30
2019-05-23T15:49:51.592Z,73.50
2019-05-23T15:52:37.492Z,75.80
2019-05-23T15:55:26.603Z,76.70
2019-05-23T15:58:15.047Z,79.30
2019-05-23T16:00:56.769Z,78.30
2019-05-23T16:03:36.493Z,75.90
2019-05-23T16:06:08.236Z,77.50
2019-05-23T16:08:38.245Z,73.70
2019-05-23T16:11:07.265Z,74.30
2019-05-23T16:13:38.545Z,76.30
2019-05-23T16:16:07.475Z,79.60
2019-05-23T16:18:36.305Z,77.90
2019-05-23T16:21:05.352Z,77.80
2019-05-23T16:23:34.253Z,79.50
2019-05-23T16:26:03.058Z,79.10
2019-05-23T16:28:31.847Z,81.80
2019-05-23T16:31:00.830Z,77.20
2019-05-23T16:33:29.557Z,78.30
2019-05-23T16:35:58.347Z,77.70
2019-05-23T16:38:27.085Z,77.20
2019-05-23T16:40:56.175Z,79.30
2019-05-23T16:43:24.999Z,80.10
2019-05-23T16:45:53.792Z,79.70
2019-05-23T16:48:22.877Z,77.20
2019-05-23T16:50:51.617Z,77.90
2019-05-23T16:53:20.464Z,78.50
2019-05-23T16:55:55.739Z,76.80
2019-05-23T16:58:37.373Z,79.00
2019-05-23T17:01:24.135Z,76.40
2019-05-23T17:03:57.971Z,80.70
2019-05-23T17:06:46.137Z,79.20
2019-05-23T17:10:06.189Z,79.90
2019-05-23T17:12:30.019Z,79.10
2019-05-23T17:15:15.819Z,79.10
2019-05-23T17:18:02.742Z,78.60
2019-05-23T17:20:45.715Z,80.90
2019-05-23T17:23:32.935Z,80.60
2019-05-23T17:26:13.792Z,80.30
2019-05-23T17:28:46.019Z,80.30
2019-05-23T17:31:18.141Z,82.10
2019-05-23T17:33:46.971Z,82.00
2019-05-23T17:36:16.552Z,81.70
2019-05-23T17:38:45.375Z,84.90
2019-05-23T17:41:14.580Z,81.90
2019-05-23T17:43:43.430Z,80.70
2019-05-23T17:46:12.266Z,82.00
2019-05-23T17:48:41.095Z,82.30
2019-05-23T17:51:10.034Z,82.30
2019-05-23T17:53:38.835Z,85.00
2019-05-23T17:56:08.483Z,84.10
2019-05-23T17:58:37.353Z,84.20
2019-05-23T18:01:07.312Z,86.00
2019-05-23T18:03:36.303Z,84.40
2019-05-23T18:06:05.976Z,84.70
2019-05-23T18:08:35.065Z,86.20
2019-05-23T18:11:04.103Z,91.30
2019-05-23T18:13:33.580Z,91.70
2019-05-23T18:16:02.363Z,96.10
2019-05-23T18:18:31.976Z,97.60
2019-05-23T18:21:01.183Z,99.90
2019-05-23T18:23:30.035Z,99.90
2019-05-23T18:25:59.652Z,99.90
2019-05-23T18:28:29.347Z,99.90
2019-05-23T18:31:07.370Z,99.90
2019-05-23T18:33:33.887Z,99.90
2019-05-23T18:36:03.477Z,99.90
2019-05-23T18:38:32.625Z,99.90
2019-05-23T18:41:04.353Z,99.90
2019-05-23T18:43:32.971Z,99.90
2019-05-23T18:46:04.563Z,99.90
2019-05-23T18:48:34.319Z,99.90
2019-05-23T18:51:03.799Z,99.90
2019-05-23T18:53:32.940Z,99.90
2019-05-23T18:56:02.626Z,99.90
2019-05-23T18:58:31.888Z,99.90
2019-05-23T19:01:07.048Z,99.90
2019-05-23T19:03:36.378Z,99.90
2019-05-23T19:06:06.444Z,99.90
2019-05-23T19:08:35.891Z,99.90
2019-05-23T19:11:20.009Z,99.90
2019-05-23T19:13:37.071Z,99.90
2019-05-23T19:16:06.177Z,99.90
2019-05-23T19:18:36.804Z,99.90
2019-05-23T19:21:06.374Z,99.90
2019-05-23T19:23:35.836Z,99.90
2019-05-23T19:26:05.131Z,99.90
2019-05-23T19:28:34.543Z,99.90
2019-05-23T19:31:03.350Z,99.90
2019-05-23T19:33:33.000Z,99.90
2019-05-23T19:36:02.120Z,99.90
2019-05-23T19:38:30.923Z,99.90
2019-05-23T19:40:59.907Z,99.90
2019-05-23T19:43:29.308Z,99.90
2019-05-23T19:45:58.318Z,99.90
2019-05-23T19:48:27.451Z,99.90
2019-05-23T19:50:57.070Z,99.90
2019-05-23T19:53:27.447Z,99.90
2019-05-23T19:55:56.671Z,99.90
2019-05-23T19:58:26.606Z,99.90
2019-05-23T20:00:55.779Z,99.90
2019-05-23T20:03:24.952Z,99.90
2019-05-23T20:05:54.658Z,99.90
2019-05-23T20:08:23.657Z,99.90
2019-05-23T20:10:55.749Z,99.90
2019-05-23T20:13:25.617Z,99.90
2019-05-23T20:15:54.338Z,99.90
2019-05-23T20:18:23.724Z,99.90
2019-05-23T20:20:52.721Z,99.90
2019-05-23T20:23:21.592Z,99.90
2019-05-23T20:25:50.477Z,99.90
2019-05-23T20:28:19.408Z,99.90
2019-05-23T20:30:52.066Z,99.90
2019-05-23T20:33:20.894Z,99.90
2019-05-23T20:35:49.782Z,99.90
2019-05-23T20:38:18.841Z,99.90
2019-05-23T20:40:47.660Z,99.90
2019-05-23T20:43:16.665Z,99.90
2019-05-23T20:45:45.482Z,99.90
2019-05-23T20:48:14.548Z,99.90
2019-05-23T20:50:43.551Z,99.90
2019-05-23T20:53:12.511Z,99.90
2019-05-23T20:55:41.356Z,99.90
2019-05-23T20:58:10.462Z,99.90
2019-05-23T21:00:58.563Z,99.90
2019-05-23T21:03:28.544Z,99.90
2019-05-23T21:05:57.492Z,99.90
2019-05-23T21:08:26.431Z,99.90
2019-05-23T21:10:55.221Z,99.90
2019-05-23T21:13:23.968Z,99.90
2019-05-23T21:15:52.835Z,99.90
2019-05-23T21:18:21.660Z,99.90
2019-05-23T21:20:50.528Z,99.90
2019-05-23T21:23:19.331Z,99.90
2019-05-23T21:25:54.155Z,99.90
2019-05-23T21:28:23.048Z,99.90
2019-05-23T21:30:51.859Z,99.90
2019-05-23T21:33:21.007Z,99.90
2019-05-23T21:35:49.835Z,99.90
2019-05-23T21:38:18.646Z,99.90
2019-05-23T21:40:47.793Z,99.90
2019-05-23T21:43:16.592Z,99.90
2019-05-23T21:45:45.420Z,99.90
2019-05-23T21:48:14.340Z,99.90
2019-05-23T21:50:43.178Z,99.90
2019-05-23T21:53:13.148Z,99.90
2019-05-23T21:55:42.931Z,99.90
2019-05-23T21:58:13.076Z,99.90
2019-05-23T22:01:40.140Z,99.90
2019-05-23T22:04:27.342Z,99.90
2019-05-23T22:06:59.389Z,99.90
2019-05-23T22:09:28.204Z,99.90
2019-05-23T22:11:57.323Z,99.90
2019-05-23T22:14:26.197Z,99.90
2019-05-23T22:16:55.091Z,99.90
2019-05-23T22:19:24.752Z,99.90
2019-05-23T22:21:53.507Z,99.90
2019-05-23T22:24:22.407Z,99.90
2019-05-23T22:26:51.223Z,99.90
2019-05-23T22:29:20.332Z,99.90
2019-05-23T22:31:49.103Z,99.90
2019-05-23T22:34:25.036Z,99.90
2019-05-23T22:36:53.838Z,99.90
2019-05-23T22:39:22.584Z,99.90
2019-05-23T22:41:51.342Z,99.90
2019-05-23T22:44:20.091Z,99.90
2019-05-23T22:46:49.871Z,99.90
2019-05-23T22:49:18.819Z,99.90
2019-05-23T22:51:47.680Z,99.90
2019-05-23T22:54:16.395Z,99.90
2019-05-23T22:56:45.231Z,99.90
2019-05-23T22:59:13.987Z,99.90
2019-05-23T23:01:42.973Z,99.90
2019-05-23T23:04:11.967Z,99.90
2019-05-23T23:06:40.717Z,99.90
2019-05-23T23:09:09.703Z,99.90
2019-05-23T23:11:38.537Z,99.90
2019-05-23T23:14:07.542Z,99.90
2019-05-23T23:16:36.371Z,99.90
2019-05-23T23:19:05.341Z,99.90
2019-05-23T23:21:34.407Z,99.90
2019-05-23T23:24:03.609Z,99.90
2019-05-23T23:26:32.368Z,99.90
2019-05-23T23:29:01.121Z,99.90
2019-05-23T23:31:29.845Z,99.90
2019-05-23T23:33:58.806Z,99.90
2019-05-23T23:36:27.643Z,99.90
2019-05-23T23:38:56.463Z,99.90
2019-05-23T23:41:25.211Z,99.90
2019-05-23T23:43:59.130Z,99.90
2019-05-23T23:46:42.121Z,99.90
2019-05-23T23:49:28.599Z,99.90
2019-05-23T23:52:15.203Z,99.90
2019-05-23T23:55:03.103Z,99.90
2019-05-23T23:57:49.660Z,99.90
